createdAt,value
2023-04-09T08:45:31.950Z,24.93
2023-04-09T18:03:39.028Z,15.25
2023-04-09T18:04:39.022Z,15.28
2023-04-09T18:05:38.897Z,15.27
2023-04-09T18:06:38.836Z,15.14
2023-04-09T18:07:38.827Z,15.19
2023-04-09T18:08:38.833Z,15.14
2023-04-09T18:09:38.836Z,15.11
2023-04-09T18:10:38.848Z,15.03
2023-04-09T18:11:38.853Z,15.03
2023-04-09T18:12:38.863Z,15.07
2023-04-09T18:13:38.875Z,15.03
2023-04-09T18:14:38.893Z,15.02
2023-04-09T18:15:39.906Z,15.00
2023-04-09T18:17:21.449Z,14.96
2023-04-09T18:19:51.566Z,15.00
2023-04-09T18:20:51.548Z,15.02
2023-04-09T18:21:51.553Z,14.96
2023-04-09T18:22:51.568Z,14.88
2023-04-09T18:23:51.576Z,14.88
2023-04-09T18:30:49.089Z,14.73
2023-04-09T18:31:49.109Z,14.78
2023-04-09T18:32:49.187Z,14.81
2023-04-09T18:33:49.090Z,14.82
2023-04-09T18:34:49.103Z,14.66
2023-04-09T19:25:19.396Z,14.22
2023-04-09T19:26:19.382Z,14.14
2023-04-09T19:27:19.386Z,14.07
2023-04-09T19:28:19.399Z,14.04
2023-04-09T19:29:19.401Z,13.93
2023-04-09T19:30:19.416Z,13.90
2023-04-09T19:31:19.433Z,13.92
2023-04-09T19:32:19.426Z,13.81
2023-04-09T19:33:19.444Z,13.78
2023-04-09T19:34:19.442Z,13.78
2023-04-09T19:35:19.550Z,13.77
2023-04-09T19:36:19.452Z,13.72
2023-04-09T19:37:19.457Z,13.65
2023-04-09T19:38:19.526Z,13.68
2023-04-09T19:39:19.471Z,13.63
2023-04-09T19:40:19.475Z,13.60
2023-04-09T19:41:19.630Z,13.54
2023-04-09T19:42:19.483Z,13.54
2023-04-09T19:43:19.497Z,13.54
2023-04-09T19:44:19.503Z,13.54
2023-04-09T19:45:19.513Z,13.56
2023-04-09T19:46:19.519Z,13.39
2023-04-09T19:47:19.743Z,13.41
2023-04-09T19:48:19.545Z,13.38
2023-04-09T19:49:19.537Z,13.39
2023-04-09T19:50:19.544Z,13.37
2023-04-09T19:51:19.553Z,13.38
2023-04-09T19:52:19.550Z,13.35
2023-04-09T19:53:19.561Z,13.30
2023-04-09T19:54:19.572Z,13.30
2023-04-09T19:55:19.573Z,13.30
2023-04-09T19:56:19.588Z,13.23
2023-04-09T19:57:19.606Z,13.27
2023-04-09T19:58:19.592Z,13.19
2023-04-09T19:59:19.602Z,13.20
2023-04-09T20:00:19.612Z,13.16
2023-04-09T20:01:19.659Z,13.16
2023-04-09T20:02:19.821Z,13.19
2023-04-09T20:03:19.775Z,13.13
2023-04-09T20:04:19.646Z,13.13
2023-04-09T20:05:19.641Z,13.16
2023-04-09T20:06:19.650Z,13.09
2023-04-09T20:07:19.659Z,13.05
2023-04-09T20:08:19.662Z,13.05
2023-04-09T20:09:19.669Z,13.03
2023-04-09T20:10:19.702Z,13.05
2023-04-09T20:11:19.687Z,13.01
2023-04-09T20:12:19.696Z,13.01
2023-04-09T20:13:19.719Z,12.95
2023-04-09T20:14:19.710Z,12.97
2023-04-09T20:15:19.720Z,12.98
2023-04-09T20:16:19.780Z,12.98
2023-04-09T20:17:19.737Z,12.91
2023-04-09T20:18:19.734Z,12.90
2023-04-09T20:19:19.845Z,12.85
2023-04-09T20:20:19.791Z,12.83
2023-04-09T20:21:19.762Z,12.78
2023-04-09T20:22:19.765Z,12.76
2023-04-09T20:23:19.775Z,12.75
2023-04-09T20:24:19.778Z,12.73
2023-04-09T20:25:19.814Z,12.73
2023-04-09T20:26:19.795Z,12.58
2023-04-09T20:27:19.796Z,12.60
2023-04-09T20:28:19.809Z,12.55
2023-04-09T20:29:19.828Z,12.58
2023-04-09T20:30:19.827Z,12.53
2023-04-09T20:31:19.851Z,12.50
2023-04-09T20:32:20.005Z,12.46
2023-04-09T20:33:19.842Z,12.49
2023-04-09T20:34:19.845Z,12.40
2023-04-09T20:35:19.853Z,12.36
2023-04-09T20:36:19.907Z,12.31
2023-04-09T20:37:19.874Z,12.29
2023-04-09T20:38:19.869Z,12.15
2023-04-09T20:39:19.878Z,12.20
2023-04-09T20:40:19.891Z,12.22
2023-04-09T20:41:19.895Z,12.17
2023-04-09T20:42:19.907Z,12.15
2023-04-09T20:43:19.904Z,12.22
2023-04-09T20:44:19.919Z,12.27
2023-04-09T20:45:19.943Z,12.22
2023-04-09T20:46:20.088Z,12.12
2023-04-09T20:47:19.938Z,12.12
2023-04-09T21:05:29.849Z,11.62
2023-04-09T21:06:29.859Z,11.68
2023-04-09T21:07:29.832Z,11.57
2023-04-09T21:08:29.856Z,11.51
2023-04-09T21:09:29.856Z,11.50
2023-04-09T21:10:29.851Z,11.47
2023-04-09T21:11:29.867Z,11.47
2023-04-09T21:12:29.864Z,11.51
2023-04-09T21:13:30.927Z,11.35
2023-04-09T21:14:29.880Z,11.40
2023-04-09T21:15:29.883Z,11.37
2023-04-09T21:16:29.937Z,11.37
2023-04-09T21:17:29.949Z,11.32
2023-04-09T21:18:29.908Z,11.32
2023-04-09T21:19:29.923Z,11.26
2023-04-09T21:20:29.920Z,11.32
2023-04-09T21:21:29.960Z,11.27
2023-04-09T21:22:29.928Z,11.30
2023-04-09T21:23:29.943Z,11.26
2023-04-09T21:24:29.951Z,11.18
2023-04-09T21:25:29.994Z,11.19
2023-04-09T21:26:38.444Z,11.23
2023-04-09T21:27:29.977Z,11.11
2023-04-09T21:28:29.970Z,11.10
2023-04-09T21:29:29.983Z,11.11
2023-04-09T21:30:29.989Z,11.10
2023-04-09T21:31:30.057Z,11.02
2023-04-09T21:32:30.008Z,11.07
2023-04-09T21:33:30.383Z,10.97
2023-04-09T21:34:30.019Z,10.97
2023-04-09T21:35:30.044Z,11.02
2023-04-09T21:36:30.039Z,11.02
2023-04-09T21:37:30.063Z,11.00
2023-04-09T21:38:30.039Z,10.97
2023-04-09T21:39:30.039Z,10.94
2023-04-09T21:40:30.051Z,10.94
2023-04-09T21:41:30.051Z,10.99
2023-04-09T21:42:30.058Z,10.94
2023-04-09T21:43:30.070Z,10.87
2023-04-09T21:44:30.075Z,10.97
2023-04-09T21:45:30.099Z,10.89
2023-04-09T21:46:30.116Z,10.97
2023-04-09T21:47:30.111Z,11.00
2023-04-09T21:48:30.090Z,10.99
2023-04-09T21:49:30.096Z,10.99
2023-04-09T21:50:30.104Z,10.96
2023-04-09T21:51:30.110Z,10.87
2023-04-09T21:52:30.116Z,10.90
2023-04-09T21:53:30.175Z,10.89
2023-04-09T21:54:30.140Z,10.97
2023-04-09T21:55:30.134Z,10.92
2023-04-09T21:56:30.141Z,10.94
2023-04-09T21:57:30.146Z,10.90
2023-04-09T21:58:30.152Z,10.94
2023-04-09T21:59:30.164Z,10.96
2023-04-09T22:00:30.174Z,10.90
2023-04-09T22:01:30.266Z,10.97
2023-04-09T22:02:30.331Z,10.92
2023-04-09T22:03:30.244Z,10.93
2023-04-09T22:04:30.246Z,10.87
2023-04-09T22:05:30.193Z,10.89
2023-04-09T22:06:30.205Z,10.81
2023-04-09T22:07:30.213Z,10.86
2023-04-09T22:08:30.238Z,10.79
2023-04-09T22:09:30.241Z,10.86
2023-04-09T22:10:30.225Z,10.87
2023-04-09T22:11:30.236Z,10.86
2023-04-09T22:12:30.233Z,10.82
2023-04-09T22:13:30.247Z,10.86
2023-04-09T22:14:30.249Z,10.89
2023-04-09T22:15:30.256Z,10.97
2023-04-09T22:16:30.318Z,10.84
2023-04-09T22:17:30.308Z,10.92
2023-04-09T22:18:30.280Z,10.94
2023-04-09T22:19:30.285Z,10.90
2023-04-09T22:20:30.280Z,11.00
2023-04-09T22:21:30.285Z,10.99
2023-04-09T22:22:30.313Z,11.00
2023-04-09T22:23:30.299Z,11.05
2023-04-09T22:24:30.504Z,10.94
2023-04-09T22:25:30.331Z,11.02
2023-04-09T22:26:30.331Z,11.02
2023-04-09T22:27:30.329Z,11.05
2023-04-09T22:28:30.324Z,10.94
2023-04-09T22:29:30.326Z,10.99
2023-04-09T22:30:30.353Z,10.97
2023-04-09T22:31:30.399Z,10.99
2023-04-09T22:32:30.438Z,11.04
2023-04-09T22:33:30.360Z,11.02
2023-04-09T22:34:30.356Z,11.00
2023-04-09T22:35:30.431Z,11.00
2023-04-09T22:36:30.372Z,10.92
2023-04-09T22:37:30.374Z,11.00
2023-04-09T22:38:30.387Z,11.02
2023-04-09T22:39:30.386Z,10.97
2023-04-09T22:40:30.385Z,10.99
2023-04-09T22:41:30.423Z,11.02
2023-04-09T22:42:30.406Z,11.04
2023-04-09T22:43:30.414Z,11.05
2023-04-09T22:44:30.407Z,10.94
2023-04-09T22:45:30.436Z,10.93
2023-04-09T22:46:30.487Z,10.90
2023-04-09T22:47:30.463Z,10.89
2023-04-09T22:48:30.437Z,10.86
2023-04-09T22:49:30.443Z,10.94
2023-04-09T22:50:30.444Z,10.84
2023-04-09T22:51:30.459Z,10.92
2023-04-09T22:52:30.463Z,10.94
2023-04-09T22:53:30.470Z,10.97
2023-04-09T22:54:30.468Z,10.89
2023-04-09T22:55:30.485Z,10.97
2023-04-09T22:56:30.482Z,10.99
2023-04-09T22:57:30.506Z,10.99
2023-04-09T22:58:30.486Z,10.99
2023-04-09T22:59:39.240Z,10.96
2023-04-09T23:00:30.514Z,10.90
2023-04-09T23:01:30.553Z,10.94
2023-04-09T23:02:30.593Z,10.99
2023-04-09T23:03:30.583Z,10.97
2023-04-09T23:04:30.533Z,10.97
2023-04-09T23:05:30.528Z,10.99
2023-04-09T23:06:30.534Z,11.04
2023-04-09T23:07:30.536Z,11.05
2023-04-09T23:08:30.568Z,11.02
2023-04-09T23:09:30.545Z,10.97
2023-04-09T23:10:30.552Z,10.93
2023-04-09T23:11:30.580Z,10.90
2023-04-09T23:12:30.563Z,10.93
2023-04-09T23:13:30.606Z,10.89
2023-04-09T23:14:30.579Z,10.86
2023-04-09T23:15:30.582Z,10.90
2023-04-09T23:16:30.611Z,10.87
2023-04-09T23:17:30.644Z,10.89
2023-04-09T23:18:30.592Z,10.93
2023-04-09T23:19:30.608Z,10.94
2023-04-09T23:20:30.615Z,11.00
2023-04-09T23:21:30.618Z,10.99
2023-04-09T23:22:30.617Z,10.94
2023-04-09T23:23:30.628Z,10.94
2023-04-09T23:24:30.632Z,10.93
2023-04-09T23:25:30.634Z,10.94
2023-04-09T23:26:30.644Z,10.97
2023-04-09T23:27:30.642Z,10.92
2023-04-09T23:28:30.646Z,10.93
2023-04-09T23:29:30.686Z,10.87
2023-04-09T23:30:30.666Z,10.90
2023-04-09T23:31:30.727Z,10.92
2023-04-09T23:32:30.688Z,10.90
2023-04-09T23:33:30.687Z,10.90
2023-04-09T23:34:30.680Z,11.00
2023-04-09T23:35:30.701Z,10.90
2023-04-09T23:36:30.690Z,10.89
2023-04-09T23:37:30.703Z,10.92
2023-04-09T23:38:30.706Z,10.94
2023-04-09T23:39:30.717Z,10.94
2023-04-09T23:40:30.720Z,10.87
2023-04-09T23:41:30.728Z,10.87
2023-04-09T23:42:30.723Z,10.82
2023-04-09T23:43:30.744Z,10.78
2023-04-09T23:44:30.735Z,10.72
2023-04-09T23:45:30.773Z,10.68
2023-04-09T23:46:30.763Z,10.59
2023-04-09T23:47:30.784Z,10.67
2023-04-09T23:48:30.761Z,10.60
2023-04-09T23:49:30.769Z,10.57
2023-04-09T23:50:30.774Z,10.42
2023-04-09T23:51:30.776Z,10.48
2023-04-09T23:52:30.784Z,10.53
2023-04-09T23:53:30.786Z,10.49
2023-04-09T23:54:30.805Z,10.42
2023-04-09T23:55:30.799Z,10.46
2023-04-09T23:56:30.805Z,10.41
2023-04-09T23:57:30.805Z,10.38
2023-04-09T23:58:30.812Z,10.38
2023-04-09T23:59:30.815Z,10.34
